sensor_id;sensor_type;location;lat;lon;timestamp;P1;durP1;ratioP1;P2;durP2;ratioP2
73632;SDS011;61927;50.080;14.418;2022-11-10T00:00:08;28.25;;;16.88;;
73632;SDS011;61927;50.080;14.418;2022-11-10T00:02:54;30.83;;;18.00;;
73632;SDS011;61927;50.080;14.418;2022-11-10T00:05:20;34.17;;;18.02;;
73632;SDS011;61927;50.080;14.418;2022-11-10T00:07:45;28.25;;;17.30;;
73632;SDS011;61927;50.080;14.418;2022-11-10T00:10:10;31.13;;;18.50;;
73632;SDS011;61927;50.080;14.418;2022-11-10T00:12:36;30.90;;;17.52;;
73632;SDS011;61927;50.080;14.418;2022-11-10T00:15:02;28.67;;;17.45;;
73632;SDS011;61927;50.080;14.418;2022-11-10T00:17:46;26.75;;;16.63;;
73632;SDS011;61927;50.080;14.418;2022-11-10T00:20:12;30.83;;;17.45;;
73632;SDS011;61927;50.080;14.418;2022-11-10T00:22:38;31.70;;;16.85;;
73632;SDS011;61927;50.080;14.418;2022-11-10T00:25:05;31.45;;;16.73;;
73632;SDS011;61927;50.080;14.418;2022-11-10T00:27:31;30.25;;;17.92;;
73632;SDS011;61927;50.080;14.418;2022-11-10T00:29:57;34.42;;;17.88;;
73632;SDS011;61927;50.080;14.418;2022-11-10T00:32:23;31.58;;;17.70;;
73632;SDS011;61927;50.080;14.418;2022-11-10T00:34:49;34.10;;;18.73;;
73632;SDS011;61927;50.080;14.418;2022-11-10T00:37:14;31.92;;;18.95;;
73632;SDS011;61927;50.080;14.418;2022-11-10T00:39:40;30.23;;;16.92;;
73632;SDS011;61927;50.080;14.418;2022-11-10T00:42:06;28.55;;;16.73;;
73632;SDS011;61927;50.080;14.418;2022-11-10T00:44:32;30.15;;;16.92;;
73632;SDS011;61927;50.080;14.418;2022-11-10T00:46:58;29.33;;;16.88;;
73632;SDS011;61927;50.080;14.418;2022-11-10T00:49:24;28.70;;;16.98;;
73632;SDS011;61927;50.080;14.418;2022-11-10T00:51:50;29.20;;;16.98;;
73632;SDS011;61927;50.080;14.418;2022-11-10T00:54:15;32.45;;;16.95;;
73632;SDS011;61927;50.080;14.418;2022-11-10T00:56:41;30.10;;;17.40;;
73632;SDS011;61927;50.080;14.418;2022-11-10T00:59:06;27.00;;;15.93;;
73632;SDS011;61927;50.080;14.418;2022-11-10T01:01:32;27.75;;;16.20;;
73632;SDS011;61927;50.080;14.418;2022-11-10T01:03:57;31.23;;;16.27;;
73632;SDS011;61927;50.080;14.418;2022-11-10T01:06:23;27.23;;;16.00;;
73632;SDS011;61927;50.080;14.418;2022-11-10T01:08:49;30.63;;;16.98;;
73632;SDS011;61927;50.080;14.418;2022-11-10T01:11:16;28.17;;;16.45;;
73632;SDS011;61927;50.080;14.418;2022-11-10T01:13:42;27.05;;;16.98;;
73632;SDS011;61927;50.080;14.418;2022-11-10T01:16:10;33.80;;;16.83;;
73632;SDS011;61927;50.080;14.418;2022-11-10T01:18:38;28.30;;;16.73;;
73632;SDS011;61927;50.080;14.418;2022-11-10T01:21:05;25.95;;;16.23;;
73632;SDS011;61927;50.080;14.418;2022-11-10T01:23:32;30.15;;;17.25;;
73632;SDS011;61927;50.080;14.418;2022-11-10T01:26:02;32.38;;;16.83;;
73632;SDS011;61927;50.080;14.418;2022-11-10T01:28:30;30.48;;;17.65;;
73632;SDS011;61927;50.080;14.418;2022-11-10T01:30:57;29.23;;;16.83;;
73632;SDS011;61927;50.080;14.418;2022-11-10T01:33:26;32.67;;;17.13;;
73632;SDS011;61927;50.080;14.418;2022-11-10T01:35:52;33.75;;;17.90;;
73632;SDS011;61927;50.080;14.418;2022-11-10T01:38:18;32.15;;;17.55;;
73632;SDS011;61927;50.080;14.418;2022-11-10T01:40:44;30.38;;;16.85;;
73632;SDS011;61927;50.080;14.418;2022-11-10T01:43:10;27.85;;;16.58;;
73632;SDS011;61927;50.080;14.418;2022-11-10T01:53:50;27.55;;;16.75;;
73632;SDS011;61927;50.080;14.418;2022-11-10T01:56:18;30.27;;;16.38;;
73632;SDS011;61927;50.080;14.418;2022-11-10T01:58:55;28.77;;;16.05;;
73632;SDS011;61927;50.080;14.418;2022-11-10T02:01:27;30.35;;;16.70;;
73632;SDS011;61927;50.080;14.418;2022-11-10T02:03:58;29.27;;;16.80;;
73632;SDS011;61927;50.080;14.418;2022-11-10T02:06:26;26.70;;;15.70;;
73632;SDS011;61927;50.080;14.418;2022-11-10T02:08:54;31.17;;;17.05;;
73632;SDS011;61927;50.080;14.418;2022-11-10T02:11:22;30.98;;;16.50;;
73632;SDS011;61927;50.080;14.418;2022-11-10T02:13:48;30.52;;;16.25;;
73632;SDS011;61927;50.080;14.418;2022-11-10T02:16:15;27.33;;;16.33;;
73632;SDS011;61927;50.080;14.418;2022-11-10T02:18:40;29.65;;;16.27;;
73632;SDS011;61927;50.080;14.418;2022-11-10T02:21:06;26.42;;;15.75;;
73632;SDS011;61927;50.080;14.418;2022-11-10T02:26:02;30.58;;;16.08;;
73632;SDS011;61927;50.080;14.418;2022-11-10T02:28:34;27.33;;;15.88;;
73632;SDS011;61927;50.080;14.418;2022-11-10T02:31:01;28.58;;;16.58;;
73632;SDS011;61927;50.080;14.418;2022-11-10T02:33:27;24.02;;;14.88;;
73632;SDS011;61927;50.080;14.418;2022-11-10T02:35:53;28.98;;;15.98;;
73632;SDS011;61927;50.080;14.418;2022-11-10T02:38:19;27.48;;;15.73;;
73632;SDS011;61927;50.080;14.418;2022-11-10T02:40:44;24.98;;;14.57;;
73632;SDS011;61927;50.080;14.418;2022-11-10T02:43:11;26.83;;;15.45;;
73632;SDS011;61927;50.080;14.418;2022-11-10T02:45:39;26.67;;;14.10;;
73632;SDS011;61927;50.080;14.418;2022-11-10T02:48:08;25.02;;;15.52;;
73632;SDS011;61927;50.080;14.418;2022-11-10T02:50:34;27.58;;;14.73;;
73632;SDS011;61927;50.080;14.418;2022-11-10T02:52:59;23.85;;;13.75;;
73632;SDS011;61927;50.080;14.418;2022-11-10T02:55:25;21.70;;;14.07;;
73632;SDS011;61927;50.080;14.418;2022-11-10T02:57:51;24.75;;;14.85;;
73632;SDS011;61927;50.080;14.418;2022-11-10T03:00:17;24.83;;;14.23;;
73632;SDS011;61927;50.080;14.418;2022-11-10T03:02:42;24.55;;;14.18;;
73632;SDS011;61927;50.080;14.418;2022-11-10T03:05:08;26.48;;;14.30;;
73632;SDS011;61927;50.080;14.418;2022-11-10T03:07:34;23.27;;;14.15;;
73632;SDS011;61927;50.080;14.418;2022-11-10T03:10:00;25.20;;;13.73;;
73632;SDS011;61927;50.080;14.418;2022-11-10T03:12:26;21.23;;;13.60;;
73632;SDS011;61927;50.080;14.418;2022-11-10T03:14:51;23.02;;;13.45;;
73632;SDS011;61927;50.080;14.418;2022-11-10T03:17:17;22.52;;;13.70;;
73632;SDS011;61927;50.080;14.418;2022-11-10T03:19:42;25.33;;;13.85;;
73632;SDS011;61927;50.080;14.418;2022-11-10T03:22:08;21.85;;;13.57;;
73632;SDS011;61927;50.080;14.418;2022-11-10T03:24:33;22.17;;;14.38;;
73632;SDS011;61927;50.080;14.418;2022-11-10T03:26:59;26.75;;;13.85;;
73632;SDS011;61927;50.080;14.418;2022-11-10T03:29:24;24.17;;;13.35;;
73632;SDS011;61927;50.080;14.418;2022-11-10T03:31:50;21.33;;;13.05;;
73632;SDS011;61927;50.080;14.418;2022-11-10T03:34:15;28.17;;;13.70;;
73632;SDS011;61927;50.080;14.418;2022-11-10T03:36:41;22.35;;;13.00;;
73632;SDS011;61927;50.080;14.418;2022-11-10T03:39:06;21.95;;;12.45;;
73632;SDS011;61927;50.080;14.418;2022-11-10T03:41:32;23.65;;;13.40;;
73632;SDS011;61927;50.080;14.418;2022-11-10T03:43:57;19.67;;;12.85;;
73632;SDS011;61927;50.080;14.418;2022-11-10T03:46:23;21.20;;;12.80;;
73632;SDS011;61927;50.080;14.418;2022-11-10T03:48:48;21.33;;;12.85;;
73632;SDS011;61927;50.080;14.418;2022-11-10T03:51:14;20.60;;;12.30;;
73632;SDS011;61927;50.080;14.418;2022-11-10T03:53:39;18.20;;;11.82;;
73632;SDS011;61927;50.080;14.418;2022-11-10T03:56:05;20.27;;;12.82;;
73632;SDS011;61927;50.080;14.418;2022-11-10T03:58:31;23.63;;;12.85;;
73632;SDS011;61927;50.080;14.418;2022-11-10T04:00:56;20.85;;;12.43;;
73632;SDS011;61927;50.080;14.418;2022-11-10T04:03:22;20.67;;;12.77;;
73632;SDS011;61927;50.080;14.418;2022-11-10T04:05:48;27.60;;;12.25;;
73632;SDS011;61927;50.080;14.418;2022-11-10T04:08:33;17.73;;;11.20;;
73632;SDS011;61927;50.080;14.418;2022-11-10T04:11:18;20.33;;;12.25;;
73632;SDS011;61927;50.080;14.418;2022-11-10T04:14:02;21.65;;;13.02;;
73632;SDS011;61927;50.080;14.418;2022-11-10T04:16:47;23.02;;;12.23;;
73632;SDS011;61927;50.080;14.418;2022-11-10T04:19:13;20.13;;;12.35;;
73632;SDS011;61927;50.080;14.418;2022-11-10T04:21:38;21.60;;;12.25;;
73632;SDS011;61927;50.080;14.418;2022-11-10T04:24:04;20.48;;;12.27;;
73632;SDS011;61927;50.080;14.418;2022-11-10T04:26:30;19.52;;;12.05;;
73632;SDS011;61927;50.080;14.418;2022-11-10T04:29:01;19.70;;;12.05;;
73632;SDS011;61927;50.080;14.418;2022-11-10T04:31:29;19.75;;;12.77;;
73632;SDS011;61927;50.080;14.418;2022-11-10T04:33:56;20.10;;;11.43;;
73632;SDS011;61927;50.080;14.418;2022-11-10T04:36:23;17.48;;;11.38;;
73632;SDS011;61927;50.080;14.418;2022-11-10T04:38:50;18.40;;;12.25;;
73632;SDS011;61927;50.080;14.418;2022-11-10T04:41:16;19.90;;;11.88;;
73632;SDS011;61927;50.080;14.418;2022-11-10T04:43:42;19.30;;;11.70;;
73632;SDS011;61927;50.080;14.418;2022-11-10T04:48:45;19.95;;;11.23;;
73632;SDS011;61927;50.080;14.418;2022-11-10T04:51:10;18.40;;;10.73;;
73632;SDS011;61927;50.080;14.418;2022-11-10T04:53:36;16.77;;;11.18;;
73632;SDS011;61927;50.080;14.418;2022-11-10T04:56:02;17.95;;;11.05;;
73632;SDS011;61927;50.080;14.418;2022-11-10T04:58:27;17.27;;;11.38;;
73632;SDS011;61927;50.080;14.418;2022-11-10T05:00:53;16.02;;;10.82;;
73632;SDS011;61927;50.080;14.418;2022-11-10T05:03:18;18.92;;;11.50;;
73632;SDS011;61927;50.080;14.418;2022-11-10T05:05:44;17.38;;;10.82;;
73632;SDS011;61927;50.080;14.418;2022-11-10T05:08:10;16.08;;;11.23;;
73632;SDS011;61927;50.080;14.418;2022-11-10T05:10:36;16.15;;;11.20;;
73632;SDS011;61927;50.080;14.418;2022-11-10T05:13:02;16.33;;;10.75;;
73632;SDS011;61927;50.080;14.418;2022-11-10T05:15:29;18.25;;;11.10;;
73632;SDS011;61927;50.080;14.418;2022-11-10T05:17:56;18.95;;;10.70;;
73632;SDS011;61927;50.080;14.418;2022-11-10T05:20:22;18.73;;;10.32;;
73632;SDS011;61927;50.080;14.418;2022-11-10T05:22:49;20.75;;;10.63;;
73632;SDS011;61927;50.080;14.418;2022-11-10T05:25:35;15.50;;;10.02;;
73632;SDS011;61927;50.080;14.418;2022-11-10T05:28:03;15.18;;;10.15;;
73632;SDS011;61927;50.080;14.418;2022-11-10T05:30:29;15.13;;;10.52;;
73632;SDS011;61927;50.080;14.418;2022-11-10T05:32:55;12.38;;;9.82;;
73632;SDS011;61927;50.080;14.418;2022-11-10T05:35:20;13.18;;;8.93;;
73632;SDS011;61927;50.080;14.418;2022-11-10T05:37:46;12.23;;;9.23;;
73632;SDS011;61927;50.080;14.418;2022-11-10T05:40:11;12.00;;;8.63;;
73632;SDS011;61927;50.080;14.418;2022-11-10T05:42:44;14.73;;;9.00;;
73632;SDS011;61927;50.080;14.418;2022-11-10T05:45:14;10.88;;;8.88;;
73632;SDS011;61927;50.080;14.418;2022-11-10T05:47:40;16.60;;;8.90;;
73632;SDS011;61927;50.080;14.418;2022-11-10T05:50:06;13.07;;;9.30;;
73632;SDS011;61927;50.080;14.418;2022-11-10T05:52:32;12.27;;;8.65;;
73632;SDS011;61927;50.080;14.418;2022-11-10T05:54:58;13.43;;;7.85;;
73632;SDS011;61927;50.080;14.418;2022-11-10T05:57:24;11.23;;;8.30;;
73632;SDS011;61927;50.080;14.418;2022-11-10T05:59:49;12.50;;;8.57;;
73632;SDS011;61927;50.080;14.418;2022-11-10T06:02:14;22.35;;;8.75;;
73632;SDS011;61927;50.080;14.418;2022-11-10T06:04:40;13.57;;;9.25;;
73632;SDS011;61927;50.080;14.418;2022-11-10T06:07:06;15.55;;;9.07;;
73632;SDS011;61927;50.080;14.418;2022-11-10T06:09:36;16.38;;;9.85;;
73632;SDS011;61927;50.080;14.418;2022-11-10T06:12:02;25.08;;;10.57;;
73632;SDS011;61927;50.080;14.418;2022-11-10T06:14:28;32.20;;;13.57;;
73632;SDS011;61927;50.080;14.418;2022-11-10T06:16:54;20.48;;;12.60;;
73632;SDS011;61927;50.080;14.418;2022-11-10T06:19:20;21.92;;;13.68;;
73632;SDS011;61927;50.080;14.418;2022-11-10T06:21:45;21.88;;;12.20;;
73632;SDS011;61927;50.080;14.418;2022-11-10T06:24:11;23.60;;;12.05;;
73632;SDS011;61927;50.080;14.418;2022-11-10T06:26:37;24.30;;;12.00;;
73632;SDS011;61927;50.080;14.418;2022-11-10T06:29:02;21.35;;;13.93;;
73632;SDS011;61927;50.080;14.418;2022-11-10T06:31:28;22.40;;;12.57;;
73632;SDS011;61927;50.080;14.418;2022-11-10T06:33:53;23.52;;;13.27;;
73632;SDS011;61927;50.080;14.418;2022-11-10T06:36:20;21.75;;;13.45;;
73632;SDS011;61927;50.080;14.418;2022-11-10T06:38:46;21.90;;;11.55;;
73632;SDS011;61927;50.080;14.418;2022-11-10T06:41:12;28.00;;;12.13;;
73632;SDS011;61927;50.080;14.418;2022-11-10T06:43:37;22.13;;;11.32;;
73632;SDS011;61927;50.080;14.418;2022-11-10T06:46:03;14.98;;;10.30;;
73632;SDS011;61927;50.080;14.418;2022-11-10T06:48:29;22.73;;;10.07;;
73632;SDS011;61927;50.080;14.418;2022-11-10T06:50:54;16.45;;;10.63;;
73632;SDS011;61927;50.080;14.418;2022-11-10T06:53:23;20.65;;;12.00;;
73632;SDS011;61927;50.080;14.418;2022-11-10T06:55:49;17.27;;;10.30;;
73632;SDS011;61927;50.080;14.418;2022-11-10T06:58:14;18.45;;;9.45;;
73632;SDS011;61927;50.080;14.418;2022-11-10T07:00:40;14.25;;;9.35;;
73632;SDS011;61927;50.080;14.418;2022-11-10T07:03:07;16.45;;;11.70;;
73632;SDS011;61927;50.080;14.418;2022-11-10T07:05:35;17.67;;;8.65;;
73632;SDS011;61927;50.080;14.418;2022-11-10T07:08:04;15.00;;;8.35;;
73632;SDS011;61927;50.080;14.418;2022-11-10T07:10:33;12.02;;;8.15;;
73632;SDS011;61927;50.080;14.418;2022-11-10T07:13:00;12.60;;;7.93;;
73632;SDS011;61927;50.080;14.418;2022-11-10T07:15:27;20.63;;;12.50;;
73632;SDS011;61927;50.080;14.418;2022-11-10T07:17:53;15.85;;;8.23;;
73632;SDS011;61927;50.080;14.418;2022-11-10T07:20:18;11.98;;;7.70;;
73632;SDS011;61927;50.080;14.418;2022-11-10T07:22:44;11.98;;;6.90;;
73632;SDS011;61927;50.080;14.418;2022-11-10T07:25:10;12.90;;;7.18;;
73632;SDS011;61927;50.080;14.418;2022-11-10T07:27:36;9.63;;;7.00;;
73632;SDS011;61927;50.080;14.418;2022-11-10T07:30:02;10.13;;;7.00;;
73632;SDS011;61927;50.080;14.418;2022-11-10T07:32:29;9.25;;;7.15;;
73632;SDS011;61927;50.080;14.418;2022-11-10T07:34:54;12.05;;;6.85;;
73632;SDS011;61927;50.080;14.418;2022-11-10T07:37:20;9.23;;;7.22;;
73632;SDS011;61927;50.080;14.418;2022-11-10T07:39:45;15.93;;;7.55;;
73632;SDS011;61927;50.080;14.418;2022-11-10T07:42:11;17.30;;;8.73;;
73632;SDS011;61927;50.080;14.418;2022-11-10T07:44:39;14.13;;;7.03;;
73632;SDS011;61927;50.080;14.418;2022-11-10T07:47:05;9.52;;;6.75;;
73632;SDS011;61927;50.080;14.418;2022-11-10T07:49:30;10.90;;;6.57;;
73632;SDS011;61927;50.080;14.418;2022-11-10T07:51:56;11.15;;;6.80;;
73632;SDS011;61927;50.080;14.418;2022-11-10T07:54:21;12.02;;;6.15;;
73632;SDS011;61927;50.080;14.418;2022-11-10T07:56:47;9.73;;;6.13;;
73632;SDS011;61927;50.080;14.418;2022-11-10T07:59:13;9.52;;;6.00;;
73632;SDS011;61927;50.080;14.418;2022-11-10T08:01:38;11.52;;;6.32;;
73632;SDS011;61927;50.080;14.418;2022-11-10T08:04:04;10.32;;;6.20;;
73632;SDS011;61927;50.080;14.418;2022-11-10T08:06:30;7.70;;;5.38;;
73632;SDS011;61927;50.080;14.418;2022-11-10T08:08:56;14.90;;;5.30;;
73632;SDS011;61927;50.080;14.418;2022-11-10T08:11:21;13.82;;;5.35;;
73632;SDS011;61927;50.080;14.418;2022-11-10T08:13:47;18.02;;;5.93;;
73632;SDS011;61927;50.080;14.418;2022-11-10T08:16:13;13.15;;;5.65;;
73632;SDS011;61927;50.080;14.418;2022-11-10T08:18:38;7.43;;;4.05;;
73632;SDS011;61927;50.080;14.418;2022-11-10T08:21:04;5.30;;;4.47;;
73632;SDS011;61927;50.080;14.418;2022-11-10T08:23:30;5.82;;;4.10;;
73632;SDS011;61927;50.080;14.418;2022-11-10T08:25:57;11.10;;;3.72;;
73632;SDS011;61927;50.080;14.418;2022-11-10T08:28:23;11.13;;;4.35;;
73632;SDS011;61927;50.080;14.418;2022-11-10T08:30:49;10.50;;;4.15;;
73632;SDS011;61927;50.080;14.418;2022-11-10T08:33:16;7.78;;;3.40;;
73632;SDS011;61927;50.080;14.418;2022-11-10T08:35:44;10.55;;;6.85;;
73632;SDS011;61927;50.080;14.418;2022-11-10T08:38:15;5.75;;;3.83;;
73632;SDS011;61927;50.080;14.418;2022-11-10T08:40:43;8.75;;;5.05;;
73632;SDS011;61927;50.080;14.418;2022-11-10T08:43:09;7.50;;;3.22;;
73632;SDS011;61927;50.080;14.418;2022-11-10T08:45:36;10.38;;;3.20;;
73632;SDS011;61927;50.080;14.418;2022-11-10T08:48:08;6.97;;;2.72;;
73632;SDS011;61927;50.080;14.418;2022-11-10T08:50:36;8.05;;;3.00;;
73632;SDS011;61927;50.080;14.418;2022-11-10T08:53:03;9.50;;;2.63;;
73632;SDS011;61927;50.080;14.418;2022-11-10T08:55:30;3.60;;;2.80;;
73632;SDS011;61927;50.080;14.418;2022-11-10T08:57:57;8.40;;;3.17;;
73632;SDS011;61927;50.080;14.418;2022-11-10T09:00:27;15.20;;;3.10;;
73632;SDS011;61927;50.080;14.418;2022-11-10T09:03:01;5.75;;;2.47;;
73632;SDS011;61927;50.080;14.418;2022-11-10T09:05:29;7.45;;;3.30;;
73632;SDS011;61927;50.080;14.418;2022-11-10T09:07:55;5.30;;;2.70;;
73632;SDS011;61927;50.080;14.418;2022-11-10T09:10:20;5.93;;;2.47;;
73632;SDS011;61927;50.080;14.418;2022-11-10T09:12:46;11.02;;;2.95;;
73632;SDS011;61927;50.080;14.418;2022-11-10T09:15:12;6.80;;;2.47;;
73632;SDS011;61927;50.080;14.418;2022-11-10T09:17:38;10.20;;;3.05;;
73632;SDS011;61927;50.080;14.418;2022-11-10T09:20:05;7.80;;;2.45;;
73632;SDS011;61927;50.080;14.418;2022-11-10T09:22:33;6.80;;;2.50;;
73632;SDS011;61927;50.080;14.418;2022-11-10T09:25:00;7.85;;;2.50;;
73632;SDS011;61927;50.080;14.418;2022-11-10T09:27:26;5.03;;;2.03;;
73632;SDS011;61927;50.080;14.418;2022-11-10T09:29:51;8.02;;;2.08;;
73632;SDS011;61927;50.080;14.418;2022-11-10T09:32:17;5.10;;;2.00;;
73632;SDS011;61927;50.080;14.418;2022-11-10T09:34:43;4.15;;;2.28;;
73632;SDS011;61927;50.080;14.418;2022-11-10T09:37:08;5.18;;;1.80;;
73632;SDS011;61927;50.080;14.418;2022-11-10T09:39:34;5.60;;;2.15;;
73632;SDS011;61927;50.080;14.418;2022-11-10T09:42:00;10.00;;;3.25;;
73632;SDS011;61927;50.080;14.418;2022-11-10T09:44:26;8.27;;;2.47;;
73632;SDS011;61927;50.080;14.418;2022-11-10T09:46:59;12.45;;;2.83;;
73632;SDS011;61927;50.080;14.418;2022-11-10T09:49:34;7.05;;;2.42;;
73632;SDS011;61927;50.080;14.418;2022-11-10T09:52:04;2.03;;;1.83;;
73632;SDS011;61927;50.080;14.418;2022-11-10T09:54:40;3.72;;;1.83;;
73632;SDS011;61927;50.080;14.418;2022-11-10T09:57:11;9.73;;;2.05;;
73632;SDS011;61927;50.080;14.418;2022-11-10T09:59:40;10.38;;;2.65;;
73632;SDS011;61927;50.080;14.418;2022-11-10T10:02:12;6.82;;;1.90;;
73632;SDS011;61927;50.080;14.418;2022-11-10T10:08:10;4.63;;;2.00;;
73632;SDS011;61927;50.080;14.418;2022-11-10T10:10:46;9.48;;;2.65;;
73632;SDS011;61927;50.080;14.418;2022-11-10T10:16:16;5.65;;;2.17;;
73632;SDS011;61927;50.080;14.418;2022-11-10T10:26:38;4.38;;;1.58;;
73632;SDS011;61927;50.080;14.418;2022-11-10T10:29:09;6.10;;;1.77;;
73632;SDS011;61927;50.080;14.418;2022-11-10T10:31:43;7.10;;;2.10;;
73632;SDS011;61927;50.080;14.418;2022-11-10T10:34:16;8.25;;;2.15;;
73632;SDS011;61927;50.080;14.418;2022-11-10T10:36:47;7.70;;;1.77;;
73632;SDS011;61927;50.080;14.418;2022-11-10T10:39:15;5.53;;;1.80;;
73632;SDS011;61927;50.080;14.418;2022-11-10T10:41:46;3.08;;;1.60;;
73632;SDS011;61927;50.080;14.418;2022-11-10T10:44:12;4.18;;;1.60;;
73632;SDS011;61927;50.080;14.418;2022-11-10T10:46:47;9.75;;;1.95;;
73632;SDS011;61927;50.080;14.418;2022-11-10T10:51:45;7.63;;;1.65;;
73632;SDS011;61927;50.080;14.418;2022-11-10T10:54:21;12.05;;;4.85;;
73632;SDS011;61927;50.080;14.418;2022-11-10T10:56:48;5.18;;;2.17;;
73632;SDS011;61927;50.080;14.418;2022-11-10T10:59:21;7.60;;;2.38;;
73632;SDS011;61927;50.080;14.418;2022-11-10T11:01:51;4.30;;;1.80;;
73632;SDS011;61927;50.080;14.418;2022-11-10T11:06:57;5.43;;;1.80;;
73632;SDS011;61927;50.080;14.418;2022-11-10T11:09:25;8.52;;;1.83;;
73632;SDS011;61927;50.080;14.418;2022-11-10T11:12:03;7.25;;;1.90;;
73632;SDS011;61927;50.080;14.418;2022-11-10T11:14:37;7.82;;;2.22;;
73632;SDS011;61927;50.080;14.418;2022-11-10T11:17:11;9.68;;;2.10;;
73632;SDS011;61927;50.080;14.418;2022-11-10T11:19:38;5.97;;;1.73;;
73632;SDS011;61927;50.080;14.418;2022-11-10T11:22:14;11.43;;;1.60;;
73632;SDS011;61927;50.080;14.418;2022-11-10T11:27:17;5.40;;;1.60;;
73632;SDS011;61927;50.080;14.418;2022-11-10T11:30:02;10.75;;;3.30;;
73632;SDS011;61927;50.080;14.418;2022-11-10T11:32:49;2.38;;;1.77;;
73632;SDS011;61927;50.080;14.418;2022-11-10T11:38:10;7.93;;;2.28;;
73632;SDS011;61927;50.080;14.418;2022-11-10T11:57:11;11.40;;;2.78;;
73632;SDS011;61927;50.080;14.418;2022-11-10T12:05:45;6.35;;;2.13;;
73632;SDS011;61927;50.080;14.418;2022-11-10T12:11:15;4.18;;;2.13;;
73632;SDS011;61927;50.080;14.418;2022-11-10T12:16:28;4.22;;;1.92;;
73632;SDS011;61927;50.080;14.418;2022-11-10T12:27:21;7.07;;;1.90;;
73632;SDS011;61927;50.080;14.418;2022-11-10T12:32:21;5.60;;;1.88;;
73632;SDS011;61927;50.080;14.418;2022-11-10T12:37:49;2.78;;;1.38;;
73632;SDS011;61927;50.080;14.418;2022-11-10T12:43:29;6.72;;;1.90;;
73632;SDS011;61927;50.080;14.418;2022-11-10T12:46:05;5.32;;;1.98;;
73632;SDS011;61927;50.080;14.418;2022-11-10T12:48:37;7.65;;;2.00;;
73632;SDS011;61927;50.080;14.418;2022-11-10T12:51:23;3.67;;;1.60;;
73632;SDS011;61927;50.080;14.418;2022-11-10T12:53:57;7.90;;;2.17;;
73632;SDS011;61927;50.080;14.418;2022-11-10T12:56:24;8.23;;;2.60;;
73632;SDS011;61927;50.080;14.418;2022-11-10T13:01:45;6.00;;;2.33;;
73632;SDS011;61927;50.080;14.418;2022-11-10T13:04:17;8.95;;;2.10;;
73632;SDS011;61927;50.080;14.418;2022-11-10T13:06:46;8.07;;;1.98;;
73632;SDS011;61927;50.080;14.418;2022-11-10T13:09:34;6.93;;;2.10;;
73632;SDS011;61927;50.080;14.418;2022-11-10T13:14:44;4.55;;;1.90;;
73632;SDS011;61927;50.080;14.418;2022-11-10T13:19:53;4.15;;;1.90;;
73632;SDS011;61927;50.080;14.418;2022-11-10T13:22:42;8.40;;;1.60;;
73632;SDS011;61927;50.080;14.418;2022-11-10T13:28:04;3.85;;;1.80;;
73632;SDS011;61927;50.080;14.418;2022-11-10T13:30:37;4.85;;;1.75;;
73632;SDS011;61927;50.080;14.418;2022-11-10T13:41:17;2.65;;;1.38;;
73632;SDS011;61927;50.080;14.418;2022-11-10T13:43:48;6.03;;;1.52;;
73632;SDS011;61927;50.080;14.418;2022-11-10T13:46:16;12.65;;;2.50;;
73632;SDS011;61927;50.080;14.418;2022-11-10T13:48:52;6.57;;;1.13;;
73632;SDS011;61927;50.080;14.418;2022-11-10T13:51:38;8.85;;;1.48;;
73632;SDS011;61927;50.080;14.418;2022-11-10T13:54:31;4.57;;;1.55;;
73632;SDS011;61927;50.080;14.418;2022-11-10T13:57:11;7.38;;;1.92;;
73632;SDS011;61927;50.080;14.418;2022-11-10T13:59:49;6.93;;;1.73;;
73632;SDS011;61927;50.080;14.418;2022-11-10T14:04:58;6.13;;;1.60;;
73632;SDS011;61927;50.080;14.418;2022-11-10T14:07:26;25.67;;;1.95;;
73632;SDS011;61927;50.080;14.418;2022-11-10T14:09:53;9.02;;;1.67;;
73632;SDS011;61927;50.080;14.418;2022-11-10T14:12:22;4.00;;;1.58;;
73632;SDS011;61927;50.080;14.418;2022-11-10T14:17:58;10.95;;;4.75;;
73632;SDS011;61927;50.080;14.418;2022-11-10T14:20:26;10.55;;;4.85;;
73632;SDS011;61927;50.080;14.418;2022-11-10T14:22:58;6.13;;;2.00;;
73632;SDS011;61927;50.080;14.418;2022-11-10T14:25:30;7.53;;;2.20;;
73632;SDS011;61927;50.080;14.418;2022-11-10T14:28:17;5.88;;;2.33;;
73632;SDS011;61927;50.080;14.418;2022-11-10T14:30:54;6.30;;;1.92;;
73632;SDS011;61927;50.080;14.418;2022-11-10T14:33:20;8.20;;;1.67;;
73632;SDS011;61927;50.080;14.418;2022-11-10T14:35:48;12.98;;;2.13;;
73632;SDS011;61927;50.080;14.418;2022-11-10T14:38:17;11.20;;;2.05;;
73632;SDS011;61927;50.080;14.418;2022-11-10T14:40:45;7.15;;;2.08;;
73632;SDS011;61927;50.080;14.418;2022-11-10T14:45:52;13.20;;;3.25;;
73632;SDS011;61927;50.080;14.418;2022-11-10T14:48:19;9.75;;;2.47;;
73632;SDS011;61927;50.080;14.418;2022-11-10T14:50:47;6.05;;;2.42;;
73632;SDS011;61927;50.080;14.418;2022-11-10T14:55:42;10.20;;;3.70;;
73632;SDS011;61927;50.080;14.418;2022-11-10T14:58:11;6.90;;;2.33;;
73632;SDS011;61927;50.080;14.418;2022-11-10T15:00:40;13.13;;;2.88;;
73632;SDS011;61927;50.080;14.418;2022-11-10T15:03:09;16.98;;;2.40;;
73632;SDS011;61927;50.080;14.418;2022-11-10T15:05:40;6.10;;;2.70;;
73632;SDS011;61927;50.080;14.418;2022-11-10T15:08:06;13.50;;;5.15;;
73632;SDS011;61927;50.080;14.418;2022-11-10T15:13:12;10.35;;;2.35;;
73632;SDS011;61927;50.080;14.418;2022-11-10T15:15:43;8.48;;;3.47;;
73632;SDS011;61927;50.080;14.418;2022-11-10T15:18:22;8.68;;;2.03;;
73632;SDS011;61927;50.080;14.418;2022-11-10T15:21:00;10.18;;;2.50;;
73632;SDS011;61927;50.080;14.418;2022-11-10T15:23:38;14.23;;;3.38;;
73632;SDS011;61927;50.080;14.418;2022-11-10T15:26:05;12.45;;;3.42;;
73632;SDS011;61927;50.080;14.418;2022-11-10T15:28:41;14.88;;;3.05;;
73632;SDS011;61927;50.080;14.418;2022-11-10T15:31:11;11.95;;;3.22;;
73632;SDS011;61927;50.080;14.418;2022-11-10T15:33:46;18.40;;;3.38;;
73632;SDS011;61927;50.080;14.418;2022-11-10T15:36:14;17.05;;;3.15;;
73632;SDS011;61927;50.080;14.418;2022-11-10T15:41:48;13.10;;;3.03;;
73632;SDS011;61927;50.080;14.418;2022-11-10T15:46:53;11.13;;;3.25;;
73632;SDS011;61927;50.080;14.418;2022-11-10T15:49:26;14.55;;;3.20;;
73632;SDS011;61927;50.080;14.418;2022-11-10T15:51:56;18.30;;;4.55;;
73632;SDS011;61927;50.080;14.418;2022-11-10T15:54:24;9.85;;;3.05;;
73632;SDS011;61927;50.080;14.418;2022-11-10T15:56:53;18.50;;;3.40;;
73632;SDS011;61927;50.080;14.418;2022-11-10T15:59:19;7.88;;;2.80;;
73632;SDS011;61927;50.080;14.418;2022-11-10T16:01:44;14.07;;;3.65;;
73632;SDS011;61927;50.080;14.418;2022-11-10T16:04:10;28.55;;;9.13;;
73632;SDS011;61927;50.080;14.418;2022-11-10T16:06:37;15.00;;;3.65;;
73632;SDS011;61927;50.080;14.418;2022-11-10T16:09:03;22.15;;;3.75;;
73632;SDS011;61927;50.080;14.418;2022-11-10T16:11:29;14.43;;;3.50;;
73632;SDS011;61927;50.080;14.418;2022-11-10T16:13:56;15.60;;;4.32;;
73632;SDS011;61927;50.080;14.418;2022-11-10T16:16:22;11.93;;;3.17;;
73632;SDS011;61927;50.080;14.418;2022-11-10T16:18:52;13.30;;;3.65;;
73632;SDS011;61927;50.080;14.418;2022-11-10T16:21:19;11.77;;;4.18;;
73632;SDS011;61927;50.080;14.418;2022-11-10T16:23:46;12.68;;;3.85;;
73632;SDS011;61927;50.080;14.418;2022-11-10T16:26:12;13.60;;;4.00;;
73632;SDS011;61927;50.080;14.418;2022-11-10T16:28:43;13.48;;;3.80;;